createdAt,value
2023-03-06T00:04:17.243Z,4.38
2023-03-06T00:07:29.318Z,4.88
2023-03-06T00:10:09.259Z,3.53
2023-03-06T00:12:57.427Z,6.70
2023-03-06T00:15:41.953Z,3.85
2023-03-06T00:18:18.578Z,4.50
2023-03-06T00:24:00.781Z,3.38
2023-03-06T00:26:44.324Z,4.57
2023-03-06T00:29:40.233Z,6.53
2023-03-06T00:32:50.225Z,5.32
2023-03-06T00:38:35.095Z,4.90
2023-03-06T00:41:13.200Z,6.32
2023-03-06T00:43:44.401Z,4.63
2023-03-06T00:46:19.226Z,3.83
2023-03-06T00:48:58.361Z,2.65
2023-03-06T00:51:32.588Z,5.03
2023-03-06T00:54:04.030Z,4.97
2023-03-06T00:56:45.344Z,4.55
2023-03-06T00:59:29.287Z,6.00
2023-03-06T01:02:04.260Z,6.57
2023-03-06T01:04:35.030Z,5.18
2023-03-06T01:07:08.624Z,5.57
2023-03-06T01:09:45.651Z,4.07
2023-03-06T01:12:21.364Z,3.47
2023-03-06T01:14:55.063Z,3.13
2023-03-06T01:17:26.606Z,3.45
2023-03-06T01:19:59.641Z,6.68
2023-03-06T01:22:30.799Z,8.10
2023-03-06T01:25:02.335Z,4.30
2023-03-06T01:27:35.242Z,3.63
2023-03-06T01:30:07.788Z,8.18
2023-03-06T01:32:38.271Z,6.72
2023-03-06T01:35:09.707Z,6.72
2023-03-06T01:37:42.502Z,4.00
2023-03-06T01:40:15.575Z,4.72
2023-03-06T01:42:48.055Z,7.32
2023-03-06T01:45:19.026Z,4.55
2023-03-06T01:47:52.817Z,6.13
2023-03-06T01:50:24.804Z,6.18
2023-03-06T01:52:59.712Z,6.80
2023-03-06T01:55:36.782Z,6.05
2023-03-06T01:58:15.215Z,8.52
2023-03-06T02:00:46.403Z,4.47
2023-03-06T02:03:22.090Z,4.93
2023-03-06T02:05:53.824Z,5.40
2023-03-06T02:08:26.268Z,5.80
2023-03-06T02:11:16.677Z,4.70
2023-03-06T02:13:50.082Z,5.32
2023-03-06T02:16:26.433Z,6.65
2023-03-06T02:18:58.176Z,6.50
2023-03-06T02:21:33.855Z,6.63
2023-03-06T02:24:32.368Z,6.43
2023-03-06T02:27:05.778Z,6.78
2023-03-06T02:29:38.250Z,4.85
2023-03-06T02:32:09.923Z,6.35
2023-03-06T02:34:40.473Z,3.35
2023-03-06T02:37:13.696Z,3.53
2023-03-06T02:39:49.457Z,3.95
2023-03-06T02:42:24.593Z,4.00
2023-03-06T02:45:00.190Z,6.35
2023-03-06T02:47:32.285Z,4.35
2023-03-06T02:50:09.044Z,5.13
2023-03-06T02:52:41.680Z,6.35
2023-03-06T02:55:13.143Z,6.18
2023-03-06T02:57:44.697Z,5.65
2023-03-06T03:00:16.523Z,6.45
2023-03-06T03:02:48.429Z,3.85
2023-03-06T03:05:19.672Z,4.30
2023-03-06T03:07:55.535Z,4.90
2023-03-06T03:10:27.826Z,5.40
2023-03-06T03:13:00.689Z,4.18
2023-03-06T03:15:32.361Z,6.45
2023-03-06T03:18:03.593Z,6.90
2023-03-06T03:20:35.746Z,6.25
2023-03-06T03:23:06.739Z,5.35
2023-03-06T03:25:40.368Z,5.82
2023-03-06T03:28:12.022Z,5.85
2023-03-06T03:30:44.099Z,4.22
2023-03-06T03:33:15.941Z,4.93
2023-03-06T03:35:49.591Z,4.05
2023-03-06T03:38:23.309Z,8.50
2023-03-06T03:41:00.071Z,4.95
2023-03-06T03:43:31.471Z,4.45
2023-03-06T03:46:05.825Z,3.13
2023-03-06T03:48:36.823Z,7.10
2023-03-06T03:51:12.282Z,7.25
2023-03-06T03:53:49.818Z,5.88
2023-03-06T03:56:27.117Z,5.93
2023-03-06T03:59:04.122Z,4.43
2023-03-06T04:01:41.555Z,4.85
2023-03-06T04:04:12.460Z,10.55
2023-03-06T04:06:49.567Z,5.00
2023-03-06T04:09:25.806Z,5.40
2023-03-06T04:11:58.730Z,5.85
2023-03-06T04:14:29.420Z,7.38
2023-03-06T04:16:59.617Z,6.68
2023-03-06T04:19:31.756Z,6.43
2023-03-06T04:22:07.001Z,10.52
2023-03-06T04:24:42.647Z,4.80
2023-03-06T04:27:13.602Z,2.88
2023-03-06T04:29:44.671Z,6.07
2023-03-06T04:32:15.970Z,5.25
2023-03-06T04:34:51.860Z,3.45
2023-03-06T04:37:25.905Z,5.25
2023-03-06T04:39:58.039Z,3.92
2023-03-06T04:42:30.160Z,6.53
2023-03-06T04:45:02.543Z,6.05
2023-03-06T04:47:37.251Z,5.93
2023-03-06T04:50:09.961Z,4.30
2023-03-06T04:52:42.675Z,3.90
2023-03-06T04:55:17.206Z,3.85
2023-03-06T04:57:49.992Z,3.47
2023-03-06T05:00:26.905Z,4.13
2023-03-06T05:02:59.117Z,2.92
2023-03-06T05:05:31.608Z,4.13
2023-03-06T05:08:04.670Z,3.00
2023-03-06T05:10:36.672Z,2.90
2023-03-06T05:13:08.562Z,3.90
2023-03-06T05:15:45.852Z,7.38
2023-03-06T05:18:16.872Z,3.67
2023-03-06T05:20:48.763Z,5.15
2023-03-06T05:23:19.913Z,4.03
2023-03-06T05:25:52.272Z,3.00
2023-03-06T05:28:26.379Z,5.03
2023-03-06T05:30:57.805Z,4.55
2023-03-06T05:33:28.915Z,7.45
2023-03-06T05:35:59.881Z,5.65
2023-03-06T05:38:30.738Z,3.90
2023-03-06T05:41:01.497Z,5.50
2023-03-06T05:43:32.632Z,7.32
2023-03-06T05:46:07.518Z,5.40
2023-03-06T05:48:39.696Z,9.48
2023-03-06T05:51:10.576Z,8.50
2023-03-06T05:53:43.679Z,6.10
2023-03-06T05:56:14.287Z,4.82
2023-03-06T05:58:45.287Z,7.05
2023-03-06T06:01:21.107Z,4.80
2023-03-06T06:03:53.299Z,7.07
2023-03-06T06:06:24.233Z,7.47
2023-03-06T06:08:55.410Z,7.20
2023-03-06T06:11:27.492Z,4.28
2023-03-06T06:13:59.346Z,7.90
2023-03-06T06:16:30.597Z,6.03
2023-03-06T06:19:02.875Z,8.98
2023-03-06T06:21:34.378Z,10.68
2023-03-06T06:24:06.265Z,11.18
2023-03-06T06:26:37.738Z,9.15
2023-03-06T06:29:09.829Z,7.30
2023-03-06T06:31:45.066Z,7.40
2023-03-06T06:34:16.218Z,8.38
2023-03-06T06:36:47.622Z,5.03
2023-03-06T06:39:20.311Z,2.75
2023-03-06T06:42:14.690Z,2.13
2023-03-06T06:44:47.017Z,2.15
2023-03-06T06:47:22.898Z,2.60
2023-03-06T06:49:57.431Z,1.63
2023-03-06T06:52:27.666Z,2.00
2023-03-06T06:54:59.128Z,1.85
2023-03-06T06:57:30.263Z,1.83
2023-03-06T07:00:01.540Z,1.75
2023-03-06T07:02:34.417Z,1.70
2023-03-06T07:07:59.984Z,1.50
2023-03-06T07:10:32.674Z,1.23
2023-03-06T07:13:06.310Z,1.40
2023-03-06T07:21:38.372Z,1.40
2023-03-06T07:24:28.832Z,2.10
2023-03-06T07:27:06.084Z,1.05
2023-03-06T07:29:45.501Z,0.90
2023-03-06T07:32:16.911Z,0.80
2023-03-06T07:34:48.788Z,1.13
2023-03-06T07:37:19.613Z,1.05
2023-03-06T07:39:53.837Z,1.00
2023-03-06T07:42:27.218Z,1.20
2023-03-06T07:45:18.883Z,1.40
2023-03-06T07:47:54.771Z,1.00
2023-03-06T07:50:29.581Z,0.80
2023-03-06T07:53:03.234Z,0.40
2023-03-06T07:55:36.047Z,0.25
2023-03-06T07:58:09.324Z,0.50
2023-03-06T08:00:43.290Z,0.40
2023-03-06T08:03:18.935Z,0.30
2023-03-06T08:05:50.535Z,0.40
2023-03-06T08:08:22.190Z,0.43
2023-03-06T08:10:53.864Z,0.50
2023-03-06T08:13:25.767Z,0.57
2023-03-06T08:15:56.989Z,0.50
2023-03-06T08:18:28.226Z,0.80
2023-03-06T08:21:08.303Z,0.50
2023-03-06T08:23:40.018Z,0.50
2023-03-06T08:26:14.394Z,0.40
2023-03-06T08:28:46.026Z,0.43
2023-03-06T08:31:32.227Z,0.50
2023-03-06T08:34:06.986Z,0.30
2023-03-06T08:36:38.808Z,0.57
2023-03-06T08:39:12.845Z,0.60
2023-03-06T08:41:45.772Z,0.50
2023-03-06T08:44:20.436Z,0.45
2023-03-06T08:46:59.114Z,0.32
2023-03-06T08:49:30.023Z,0.30
2023-03-06T08:52:20.386Z,0.60
2023-03-06T08:55:00.485Z,0.32
2023-03-06T08:57:41.314Z,0.40
2023-03-06T09:00:20.214Z,0.20
2023-03-06T09:02:56.191Z,0.28
2023-03-06T09:05:38.693Z,0.25
2023-03-06T09:08:18.402Z,0.30
2023-03-06T09:10:52.040Z,0.25
2023-03-06T09:13:45.056Z,0.60
2023-03-06T09:16:16.631Z,0.50
2023-03-06T09:18:48.534Z,0.70
2023-03-06T09:21:18.852Z,0.40
2023-03-06T09:23:50.112Z,0.32
2023-03-06T09:26:32.843Z,0.90
2023-03-06T09:29:11.817Z,0.50
2023-03-06T09:31:42.926Z,0.45
2023-03-06T09:34:15.926Z,0.40
2023-03-06T09:36:56.401Z,0.40
2023-03-06T09:39:30.336Z,0.38
2023-03-06T09:42:03.535Z,0.40
2023-03-06T09:44:40.206Z,0.50
2023-03-06T09:47:55.328Z,0.60
2023-03-06T09:50:43.798Z,0.30
2023-03-06T09:53:18.528Z,0.30
2023-03-06T09:55:58.410Z,0.40
2023-03-06T09:58:36.548Z,0.55
2023-03-06T10:01:33.691Z,0.47
2023-03-06T10:04:41.485Z,0.40
2023-03-06T10:07:46.356Z,0.50
2023-03-06T10:10:31.186Z,0.60
2023-03-06T10:13:09.873Z,0.50
2023-03-06T10:15:45.744Z,0.40
2023-03-06T10:18:20.660Z,0.60
2023-03-06T10:21:16.940Z,0.65
2023-03-06T10:23:50.096Z,0.30
2023-03-06T10:26:34.018Z,0.60
2023-03-06T10:29:28.908Z,0.20
2023-03-06T10:32:46.171Z,0.32
2023-03-06T10:35:24.134Z,0.45
2023-03-06T10:38:02.477Z,0.40
2023-03-06T10:41:04.618Z,0.40
2023-03-06T10:43:38.582Z,0.30
2023-03-06T10:46:12.327Z,0.30
2023-03-06T10:48:44.295Z,0.20
2023-03-06T10:51:23.086Z,0.40
2023-03-06T10:54:01.805Z,0.30
2023-03-06T10:56:38.006Z,0.30
2023-03-06T10:59:15.352Z,0.32
2023-03-06T11:01:55.095Z,0.30
2023-03-06T11:04:41.291Z,0.22
2023-03-06T11:07:24.174Z,0.65
2023-03-06T11:10:02.030Z,0.20
2023-03-06T11:12:43.072Z,0.40
2023-03-06T11:15:19.097Z,0.40
2023-03-06T11:18:11.530Z,0.63
2023-03-06T11:21:25.971Z,0.40
2023-03-06T11:24:01.631Z,0.40
2023-03-06T11:26:42.429Z,0.50
2023-03-06T11:29:30.534Z,0.50
2023-03-06T11:32:17.798Z,0.50
2023-03-06T11:35:23.065Z,0.50
2023-03-06T11:38:01.585Z,0.75
2023-03-06T11:40:45.425Z,0.88
2023-03-06T11:43:34.636Z,0.93
2023-03-06T11:46:16.826Z,0.90
2023-03-06T11:49:02.420Z,0.82
2023-03-06T11:51:43.984Z,0.65
2023-03-06T11:54:19.135Z,1.25
2023-03-06T11:57:08.079Z,0.75
2023-03-06T12:00:20.492Z,0.82
2023-03-06T12:03:16.107Z,1.48
2023-03-06T12:06:07.442Z,1.40
2023-03-06T12:08:52.934Z,0.60
2023-03-06T12:11:50.130Z,0.93
2023-03-06T12:14:30.449Z,0.70
2023-03-06T12:17:22.718Z,0.80
2023-03-06T12:20:40.109Z,1.05
2023-03-06T12:23:28.298Z,0.73
2023-03-06T12:26:15.147Z,0.60
2023-03-06T12:29:09.630Z,0.60
2023-03-06T12:31:57.372Z,1.00
2023-03-06T12:34:47.341Z,0.70
2023-03-06T12:37:29.184Z,0.80
2023-03-06T12:40:42.357Z,0.70
2023-03-06T12:43:16.623Z,0.70
2023-03-06T12:45:48.890Z,0.60
2023-03-06T12:48:30.642Z,0.60
2023-03-06T12:51:03.718Z,0.95
2023-03-06T12:53:36.533Z,1.27
2023-03-06T12:56:10.516Z,12.50
2023-03-06T12:58:54.016Z,13.43
2023-03-06T13:01:45.967Z,18.85
2023-03-06T13:04:43.441Z,15.35
2023-03-06T13:07:53.100Z,15.25
2023-03-06T13:10:42.493Z,13.07
2023-03-06T13:13:31.193Z,12.75
2023-03-06T13:16:04.306Z,12.32
2023-03-06T13:18:39.091Z,12.60
2023-03-06T13:21:45.883Z,13.70
2023-03-06T13:24:31.345Z,15.13
2023-03-06T13:27:08.899Z,16.05
2023-03-06T13:29:45.712Z,12.40
2023-03-06T13:32:19.176Z,16.38
2023-03-06T13:34:52.879Z,11.82
2023-03-06T13:37:27.589Z,9.35
2023-03-06T13:40:05.193Z,3.08
2023-03-06T13:42:39.620Z,4.30
2023-03-06T13:45:24.165Z,4.28
2023-03-06T13:50:52.924Z,3.65
2023-03-06T13:54:04.194Z,3.80
2023-03-06T13:57:35.407Z,5.18
2023-03-06T14:01:22.944Z,7.78
2023-03-06T14:10:15.199Z,5.25
2023-03-06T14:13:05.504Z,3.30
2023-03-06T14:16:02.945Z,5.30
2023-03-06T14:18:56.266Z,12.50
2023-03-06T14:21:38.267Z,8.90
2023-03-06T14:24:24.549Z,4.93
2023-03-06T14:27:19.090Z,2.50
2023-03-06T14:30:26.431Z,1.90
2023-03-06T14:33:09.516Z,1.73
2023-03-06T14:35:41.123Z,1.90
2023-03-06T14:38:31.037Z,1.90
2023-03-06T14:41:08.572Z,1.85
2023-03-06T14:43:56.198Z,3.90
2023-03-06T14:46:59.814Z,9.02
2023-03-06T14:50:35.599Z,5.07
2023-03-06T14:53:18.424Z,3.63
2023-03-06T14:56:05.881Z,3.60
2023-03-06T14:58:36.478Z,3.90
2023-03-06T15:01:17.323Z,5.75
2023-03-06T15:03:52.778Z,5.93
2023-03-06T15:06:46.152Z,3.85
2023-03-06T15:09:23.658Z,6.55
2023-03-06T15:12:11.849Z,6.60
2023-03-06T15:14:45.744Z,6.03
2023-03-06T15:17:28.508Z,8.48
2023-03-06T15:20:02.384Z,3.08
2023-03-06T15:22:46.535Z,2.83
2023-03-06T15:25:34.577Z,2.60
2023-03-06T15:28:27.311Z,7.00
2023-03-06T15:31:22.088Z,4.88
2023-03-06T15:34:15.790Z,5.45
2023-03-06T15:36:50.225Z,4.78
2023-03-06T15:39:43.137Z,5.28
2023-03-06T15:42:22.577Z,2.83
2023-03-06T15:45:05.160Z,3.35
2023-03-06T15:47:35.830Z,5.32
2023-03-06T15:50:06.556Z,4.85
2023-03-06T15:52:36.593Z,3.78
2023-03-06T15:55:07.685Z,5.10
2023-03-06T15:57:39.173Z,7.07
2023-03-06T16:00:27.430Z,5.05
2023-03-06T16:03:00.897Z,3.47
2023-03-06T16:05:32.464Z,6.80
2023-03-06T16:08:05.610Z,4.75
2023-03-06T16:10:40.079Z,6.43
2023-03-06T16:13:17.173Z,6.07
2023-03-06T16:15:52.812Z,7.03
2023-03-06T16:18:24.079Z,6.13
2023-03-06T16:20:55.029Z,3.60
2023-03-06T16:23:27.978Z,4.13
2023-03-06T16:25:59.755Z,8.10
2023-03-06T16:28:30.867Z,6.95
2023-03-06T16:31:06.865Z,5.03
2023-03-06T16:33:41.162Z,7.45
2023-03-06T16:36:26.122Z,6.63
2023-03-06T16:39:11.601Z,6.45
2023-03-06T16:41:43.392Z,9.07
2023-03-06T16:44:19.239Z,9.23
2023-03-06T16:46:52.538Z,7.82
2023-03-06T16:49:26.858Z,10.35
2023-03-06T16:54:37.513Z,6.80
2023-03-06T16:57:11.272Z,8.80
2023-03-06T16:59:49.122Z,8.77
2023-03-06T17:02:38.528Z,11.02
2023-03-06T17:05:49.382Z,4.00
2023-03-06T17:08:19.804Z,8.82
2023-03-06T17:10:50.599Z,5.03
2023-03-06T17:13:22.254Z,4.47
2023-03-06T17:16:01.405Z,7.80
2023-03-06T17:18:32.188Z,5.30
2023-03-06T17:21:03.203Z,15.32
2023-03-06T17:23:33.902Z,10.70
2023-03-06T17:26:24.756Z,14.43
2023-03-06T17:28:57.326Z,8.50
2023-03-06T17:31:30.884Z,9.32
2023-03-06T17:34:02.192Z,10.27
2023-03-06T17:36:33.500Z,7.38
2023-03-06T17:39:05.407Z,4.90
2023-03-06T17:41:35.838Z,4.03
2023-03-06T17:44:06.186Z,5.47
2023-03-06T17:46:38.084Z,4.32
2023-03-06T17:49:08.213Z,9.35
2023-03-06T17:51:37.982Z,11.48
2023-03-06T17:54:08.323Z,6.00
2023-03-06T17:56:40.312Z,7.03
2023-03-06T17:59:11.467Z,7.55
2023-03-06T18:01:41.766Z,10.48
2023-03-06T18:04:13.791Z,6.82
2023-03-06T18:06:44.006Z,5.15
2023-03-06T18:09:14.026Z,7.25
2023-03-06T18:11:45.126Z,9.70
2023-03-06T18:14:15.527Z,9.60
2023-03-06T18:16:45.569Z,5.80
2023-03-06T18:19:16.717Z,5.43
2023-03-06T18:21:49.364Z,11.10
2023-03-06T18:24:19.751Z,7.85
2023-03-06T18:26:53.077Z,5.07
2023-03-06T18:29:26.814Z,5.35
2023-03-06T18:32:01.369Z,3.42
2023-03-06T18:34:45.442Z,3.70
2023-03-06T18:37:20.103Z,3.47
2023-03-06T18:39:56.750Z,4.97
2023-03-06T18:42:28.418Z,3.80
2023-03-06T18:45:05.442Z,8.57
2023-03-06T18:47:36.825Z,4.70
2023-03-06T18:50:09.177Z,8.60
2023-03-06T18:52:42.181Z,5.82
2023-03-06T18:55:15.725Z,5.20
2023-03-06T18:57:46.679Z,4.00
2023-03-06T19:00:18.830Z,3.92
2023-03-06T19:02:50.389Z,7.93
2023-03-06T19:05:24.769Z,5.32
2023-03-06T19:07:55.879Z,7.28
2023-03-06T19:10:31.111Z,3.90
2023-03-06T19:13:05.035Z,6.85
2023-03-06T19:15:37.220Z,7.03
2023-03-06T19:18:09.555Z,9.07
2023-03-06T19:20:44.453Z,9.60
2023-03-06T19:23:17.977Z,10.00
2023-03-06T19:26:19.008Z,5.93
2023-03-06T19:28:57.795Z,6.15
2023-03-06T19:31:35.626Z,6.72
2023-03-06T19:34:09.844Z,5.13
2023-03-06T19:36:45.595Z,4.28
2023-03-06T19:39:23.099Z,5.05
2023-03-06T19:42:01.456Z,4.93
2023-03-06T19:44:41.308Z,4.72
2023-03-06T19:47:11.854Z,5.90
2023-03-06T19:49:43.817Z,5.20
2023-03-06T19:52:14.797Z,4.53
2023-03-06T19:54:46.712Z,7.15
2023-03-06T19:57:25.466Z,8.82
2023-03-06T20:00:00.220Z,8.23
2023-03-06T20:02:30.954Z,4.30
2023-03-06T20:05:01.896Z,12.07
2023-03-06T20:07:32.308Z,5.15
2023-03-06T20:10:05.367Z,4.15
2023-03-06T20:12:36.038Z,5.95
2023-03-06T20:15:08.233Z,8.93
2023-03-06T20:17:45.617Z,5.40
2023-03-06T20:20:17.864Z,9.15
2023-03-06T20:22:48.510Z,6.55
2023-03-06T20:25:19.718Z,9.00
2023-03-06T20:27:51.306Z,4.80
2023-03-06T20:30:21.560Z,6.53
2023-03-06T20:32:53.020Z,4.10
2023-03-06T20:35:25.201Z,6.03
2023-03-06T20:37:57.359Z,9.95
2023-03-06T20:40:29.335Z,7.65
2023-03-06T20:43:02.437Z,5.97
2023-03-06T20:45:33.907Z,11.65
2023-03-06T20:48:05.235Z,6.60
2023-03-06T20:50:36.927Z,8.18
2023-03-06T20:53:08.095Z,8.90
2023-03-06T20:55:40.369Z,8.55
2023-03-06T20:58:11.639Z,13.63
2023-03-06T21:00:42.777Z,10.23
2023-03-06T21:03:13.401Z,11.05
2023-03-06T21:05:44.497Z,8.93
2023-03-06T21:08:20.656Z,17.65
2023-03-06T21:10:54.322Z,9.98
2023-03-06T21:13:24.705Z,14.85
2023-03-06T21:15:55.584Z,15.00
2023-03-06T21:18:26.763Z,9.75
2023-03-06T21:20:58.039Z,11.50
2023-03-06T21:23:29.466Z,12.18
2023-03-06T21:26:00.619Z,2.70
2023-03-06T21:28:31.352Z,8.40
2023-03-06T21:31:04.252Z,6.55
2023-03-06T21:33:40.918Z,3.55
2023-03-06T21:36:30.661Z,3.00
2023-03-06T21:39:33.980Z,3.15
2023-03-06T21:42:15.507Z,7.30
2023-03-06T21:44:59.731Z,7.93
2023-03-06T21:47:50.980Z,5.60
2023-03-06T21:50:26.489Z,6.53
2023-03-06T21:53:52.605Z,3.50
2023-03-06T21:56:50.850Z,3.63
2023-03-06T22:08:16.749Z,3.45
2023-03-06T22:17:44.880Z,5.28
2023-03-06T22:20:26.859Z,3.70
2023-03-06T22:23:20.219Z,3.88
2023-03-06T22:32:03.896Z,3.60
2023-03-06T22:34:49.014Z,2.47
2023-03-06T22:37:54.017Z,2.25
2023-03-06T22:40:30.976Z,2.75
2023-03-06T22:43:14.435Z,9.93
2023-03-06T22:46:22.435Z,8.60
2023-03-06T22:49:09.734Z,9.27
2023-03-06T22:51:49.406Z,6.75
2023-03-06T22:54:26.633Z,7.03
2023-03-06T22:56:59.076Z,9.20
2023-03-06T22:59:40.157Z,8.20
2023-03-06T23:02:12.155Z,8.73
2023-03-06T23:04:44.882Z,7.55
2023-03-06T23:07:41.383Z,9.63
2023-03-06T23:10:18.154Z,10.07
2023-03-06T23:13:07.478Z,13.13
2023-03-06T23:15:59.766Z,11.20
2023-03-06T23:18:48.424Z,12.32
2023-03-06T23:21:38.819Z,16.55
2023-03-06T23:24:28.829Z,11.48
2023-03-06T23:27:03.182Z,8.60
2023-03-06T23:29:36.564Z,6.32
2023-03-06T23:32:17.635Z,4.70
2023-03-06T23:34:51.132Z,3.15
2023-03-06T23:37:23.858Z,1.98
2023-03-06T23:39:59.374Z,2.13
2023-03-06T23:42:32.523Z,1.75
2023-03-06T23:45:05.195Z,1.48
2023-03-06T23:47:37.504Z,3.40
2023-03-06T23:50:12.282Z,6.63
2023-03-06T23:52:48.594Z,8.77
2023-03-06T23:55:24.300Z,14.63
2023-03-06T23:57:57.746Z,13.27
